Time;durP1;ratioP1;P1;durP2;ratioP2;P2;SDS_P1;SDS_P2;PMS_P1;PMS_P2;Temp;Humidity;BMP_temperature;BMP_pressure;BME280_temperature;BME280_humidity;BME280_pressure;Samples;Min_cycle;Max_cycle;Signal;HPM_P1;HPM_P2
2022/06/15 00:00:45;;;;;;;2.30;1.95;;;12.90;99.90;;;;;;5087034;28;20051;-76
2022/06/15 00:03:14;;;;;;;3.08;1.70;;;12.90;99.90;;;;;;5089017;28;20031;-76
2022/06/15 00:05:42;;;;;;;1.75;1.50;;;12.90;99.90;;;;;;5085904;28;20617;-76
2022/06/15 00:08:08;;;;;;;2.65;1.90;;;12.80;99.90;;;;;;5088527;28;20056;-76
2022/06/15 00:10:34;;;;;;;1.75;1.60;;;12.80;99.90;;;;;;5079915;28;20484;-76
2022/06/15 00:12:59;;;;;;;1.77;1.67;;;12.80;99.90;;;;;;5087597;28;20105;-76
2022/06/15 00:15:25;;;;;;;2.50;1.63;;;12.80;99.90;;;;;;5070871;28;20024;-76
2022/06/15 00:17:50;;;;;;;3.22;2.15;;;12.80;99.90;;;;;;5086890;28;20020;-76
2022/06/15 00:20:16;;;;;;;2.90;1.75;;;12.90;99.90;;;;;;5082825;28;20017;-76
2022/06/15 00:22:42;;;;;;;1.77;1.67;;;12.80;99.90;;;;;;5085953;28;20016;-76
2022/06/15 00:25:09;;;;;;;2.88;2.38;;;12.80;99.90;;;;;;5086603;28;20048;-76
2022/06/15 00:27:35;;;;;;;2.47;1.60;;;12.80;99.90;;;;;;5085505;28;20020;-76
2022/06/15 00:30:01;;;;;;;2.58;1.77;;;12.80;99.90;;;;;;5090957;28;20030;-76
2022/06/15 00:32:26;;;;;;;3.58;2.10;;;12.80;99.90;;;;;;5089521;28;20044;-76
2022/06/15 00:34:52;;;;;;;2.95;2.13;;;12.80;99.90;;;;;;5062891;28;20052;-76
2022/06/15 00:37:18;;;;;;;2.83;1.70;;;12.80;99.90;;;;;;5087147;28;20038;-76
2022/06/15 00:39:43;;;;;;;4.10;2.30;;;12.80;99.90;;;;;;5089606;28;20066;-76
2022/06/15 00:42:12;;;;;;;2.83;1.83;;;12.80;99.90;;;;;;5086861;28;20036;-76
2022/06/15 00:44:38;;;;;;;2.40;1.92;;;12.80;99.90;;;;;;5086487;28;20016;-76
2022/06/15 00:47:07;;;;;;;3.88;1.85;;;12.80;99.90;;;;;;5070398;28;20056;-76
2022/06/15 00:49:59;;;;;;;2.45;1.70;;;12.80;99.90;;;;;;5068891;28;20019;-76
2022/06/15 00:52:33;;;;;;;4.88;2.35;;;12.80;99.90;;;;;;5082167;28;20090;-76
2022/06/15 00:55:05;;;;;;;2.15;1.70;;;12.80;99.90;;;;;;5064008;28;20119;-76
2022/06/15 00:57:30;;;;;;;3.70;2.05;;;12.80;99.90;;;;;;5064272;28;20035;-76
2022/06/15 00:59:59;;;;;;;3.83;1.70;;;12.80;99.90;;;;;;5078229;28;20111;-76
2022/06/15 01:02:26;;;;;;;3.15;1.83;;;12.80;99.90;;;;;;5085480;28;20546;-77
2022/06/15 01:04:59;;;;;;;2.65;1.80;;;12.80;99.90;;;;;;5088859;28;20016;-76
2022/06/15 01:10:11;;;;;;;2.17;1.58;;;12.70;99.90;;;;;;5048000;28;20534;-48
2022/06/15 01:13:04;;;;;;;3.50;2.30;;;12.70;99.90;;;;;;5049249;28;20479;-50
2022/06/15 01:15:45;;;;;;;4.25;2.25;;;12.70;99.90;;;;;;5049371;28;20029;-51
2022/06/15 01:18:29;;;;;;;4.18;1.60;;;12.70;99.90;;;;;;5059450;28;20021;-51
2022/06/15 01:21:10;;;;;;;2.35;1.73;;;12.70;99.90;;;;;;5065096;28;20035;-47
2022/06/15 01:23:55;;;;;;;4.13;2.20;;;12.70;99.90;;;;;;5065155;28;20013;-51
2022/06/15 01:26:36;;;;;;;6.03;2.28;;;12.70;99.90;;;;;;4995476;28;20074;-51
2022/06/15 01:29:08;;;;;;;3.30;1.90;;;12.60;99.90;;;;;;5043058;28;20064;-52
2022/06/15 01:31:42;;;;;;;3.15;2.00;;;12.60;99.90;;;;;;5045121;28;20021;-51
2022/06/15 01:34:16;;;;;;;2.35;1.50;;;12.70;99.90;;;;;;5049687;28;20065;-48
2022/06/15 01:37:06;;;;;;;3.20;1.95;;;12.60;99.90;;;;;;5066175;28;20024;-50
2022/06/15 01:40:14;;;;;;;3.78;1.92;;;12.60;99.90;;;;;;5018246;28;20064;-51
2022/06/15 01:42:47;;;;;;;3.47;1.40;;;12.60;99.90;;;;;;5046178;28;20402;-50
2022/06/15 01:45:18;;;;;;;3.78;1.50;;;12.60;99.90;;;;;;5069409;28;20383;-51
2022/06/15 01:47:46;;;;;;;2.13;1.70;;;12.60;99.90;;;;;;5065757;28;20020;-50
2022/06/15 01:50:17;;;;;;;3.65;1.98;;;12.60;99.90;;;;;;5068024;28;20486;-51
2022/06/15 01:53:14;;;;;;;4.57;2.25;;;12.60;99.90;;;;;;5064366;28;20049;-51
2022/06/15 01:55:45;;;;;;;;;;;12.50;99.90;;;;;;5059094;28;20445;-48
2022/06/15 01:58:14;;;;;;;2.80;1.75;;;12.50;99.90;;;;;;5064504;28;19904;-49
2022/06/15 02:00:41;;;;;;;3.20;1.92;;;12.50;99.90;;;;;;5048165;28;20335;-49
2022/06/15 02:03:20;;;;;;;2.60;1.98;;;12.50;99.90;;;;;;5071715;28;20611;-50
2022/06/15 02:06:01;;;;;;;2.55;1.80;;;12.50;99.90;;;;;;5032136;28;20021;-50
2022/06/15 02:08:34;;;;;;;3.15;1.90;;;12.50;99.90;;;;;;5048505;28;20510;-50
2022/06/15 02:11:12;;;;;;;3.00;1.73;;;12.50;99.90;;;;;;5066934;28;20021;-48
2022/06/15 02:13:57;;;;;;;2.00;1.80;;;12.50;99.90;;;;;;5050032;28;20387;-52
2022/06/15 02:16:38;;;;;;;3.08;2.00;;;12.40;99.90;;;;;;5048697;28;20067;-51
2022/06/15 02:19:08;;;;;;;3.60;2.03;;;12.40;99.90;;;;;;5072428;28;20066;-47
2022/06/15 02:21:37;;;;;;;4.28;2.00;;;12.40;99.90;;;;;;5068587;28;20025;-50
2022/06/15 02:24:05;;;;;;;3.05;2.05;;;12.40;99.90;;;;;;5071161;28;20031;-48
2022/06/15 02:26:34;;;;;;;5.25;2.40;;;12.40;99.90;;;;;;5067463;28;20414;-49
2022/06/15 02:29:09;;;;;;;3.95;2.13;;;12.40;99.90;;;;;;5054416;28;20123;-53
2022/06/15 02:31:36;;;;;;;2.10;1.85;;;12.40;99.90;;;;;;5066601;28;20021;-50
2022/06/15 02:34:04;;;;;;;2.95;2.35;;;12.30;99.90;;;;;;5054225;28;20035;-50
2022/06/15 02:36:33;;;;;;;3.47;1.88;;;12.30;99.90;;;;;;5048792;28;20025;-50
2022/06/15 02:39:00;;;;;;;4.00;2.75;;;12.30;99.90;;;;;;5069911;28;20033;-49
2022/06/15 02:41:26;;;;;;;2.53;1.92;;;12.30;99.90;;;;;;5066735;28;20020;-49
2022/06/15 02:43:55;;;;;;;3.35;2.33;;;12.30;99.90;;;;;;5053683;28;20021;-48
2022/06/15 02:46:22;;;;;;;4.13;1.90;;;12.30;99.90;;;;;;5072466;28;20451;-50
2022/06/15 02:48:48;;;;;;;3.63;2.15;;;12.30;99.90;;;;;;5054404;28;20490;-48
2022/06/15 02:51:31;;;;;;;3.70;2.63;;;12.30;99.90;;;;;;5071096;28;20023;-53
2022/06/15 02:54:02;;;;;;;3.10;2.20;;;12.30;99.90;;;;;;5066471;28;20025;-50
2022/06/15 02:56:29;;;;;;;2.95;2.55;;;12.30;99.90;;;;;;5071896;28;20016;-50
2022/06/15 02:58:57;;;;;;;3.58;2.40;;;12.30;99.90;;;;;;5065945;28;20028;-51
2022/06/15 03:01:24;;;;;;;4.10;2.35;;;12.20;99.90;;;;;;5069702;28;20074;-51
2022/06/15 03:03:49;;;;;;;2.88;2.20;;;12.20;99.90;;;;;;5071672;28;20008;-53
2022/06/15 03:06:17;;;;;;;3.17;2.60;;;12.20;99.90;;;;;;5067223;28;20372;-50
2022/06/15 03:08:43;;;;;;;3.20;2.40;;;12.20;99.90;;;;;;5071280;28;20024;-49
2022/06/15 03:11:09;;;;;;;2.97;2.00;;;12.10;99.90;;;;;;5065114;28;20064;-51
2022/06/15 03:13:35;;;;;;;3.20;2.40;;;12.10;99.90;;;;;;5071784;28;20052;-51
2022/06/15 03:16:02;;;;;;;2.97;2.67;;;12.10;99.90;;;;;;5064586;28;20031;-49
2022/06/15 03:18:29;;;;;;;5.97;2.42;;;12.10;99.90;;;;;;5053609;28;20111;-48
2022/06/15 03:21:02;;;;;;;7.50;2.83;;;12.00;99.90;;;;;;5070494;28;20078;-49
2022/06/15 03:23:29;;;;;;;4.65;2.83;;;12.10;99.90;;;;;;5044862;28;20025;-49
2022/06/15 03:25:56;;;;;;;3.25;2.60;;;12.00;99.90;;;;;;5070934;28;20021;-52
2022/06/15 03:28:22;;;;;;;3.05;2.67;;;12.00;99.90;;;;;;5065682;28;20060;-50
2022/06/15 03:30:49;;;;;;;2.85;2.63;;;12.00;99.90;;;;;;5071504;28;20060;-46
2022/06/15 03:33:15;;;;;;;4.30;2.30;;;12.00;99.90;;;;;;5062329;28;20025;-48
2022/06/15 03:35:40;;;;;;;2.92;1.85;;;12.10;99.90;;;;;;5070831;28;20687;-49
2022/06/15 03:38:09;;;;;;;3.25;1.90;;;12.10;99.90;;;;;;5069221;28;20048;-50
2022/06/15 03:40:40;;;;;;;5.43;3.00;;;12.10;99.90;;;;;;5066095;28;20090;-50
2022/06/15 03:43:06;;;;;;;3.50;2.25;;;12.10;99.90;;;;;;5052560;28;20020;-52
2022/06/15 03:45:32;;;;;;;3.35;2.42;;;12.20;99.90;;;;;;5047243;28;20479;-49
2022/06/15 03:47:58;;;;;;;3.03;2.40;;;12.30;99.90;;;;;;5065020;28;20118;-48
2022/06/15 03:50:24;;;;;;;3.50;2.20;;;12.30;99.90;;;;;;5053268;28;20116;-49
2022/06/15 03:52:50;;;;;;;2.63;2.42;;;12.30;99.90;;;;;;5065932;28;20029;-49
2022/06/15 03:55:17;;;;;;;3.00;2.40;;;12.30;99.90;;;;;;5053353;28;20024;-49
2022/06/15 03:57:42;;;;;;;4.63;2.13;;;12.40;99.90;;;;;;5065843;28;20056;-50
2022/06/15 04:00:12;;;;;;;3.55;2.30;;;12.40;99.90;;;;;;5068300;28;20488;-50
2022/06/15 04:02:38;;;;;;;4.03;2.20;;;12.40;99.90;;;;;;5069926;28;20025;-49
2022/06/15 04:05:04;;;;;;;2.72;2.45;;;12.50;99.90;;;;;;5067149;28;20386;-50
2022/06/15 04:10:14;;;;;;;4.47;2.13;;;12.50;99.90;;;;;;5070670;28;20040;-45
2022/06/15 04:12:39;;;;;;;3.63;2.28;;;12.60;99.90;;;;;;5067739;28;20035;-45
2022/06/15 04:15:06;;;;;;;4.35;3.20;;;12.60;99.90;;;;;;5065117;28;20063;-45
2022/06/15 04:17:31;;;;;;;3.50;3.13;;;12.60;99.90;;;;;;5064555;28;20276;-45
2022/06/15 04:22:41;;;;;;;5.97;2.20;;;12.70;99.90;;;;;;5046039;28;20150;-46
2022/06/15 04:25:07;;;;;;;2.95;2.35;;;12.70;99.90;;;;;;5049213;28;20047;-46
2022/06/15 04:27:33;;;;;;;2.30;2.10;;;12.70;99.90;;;;;;5027367;28;20017;-45
2022/06/15 04:29:59;;;;;;;3.95;2.10;;;12.80;99.90;;;;;;5040834;28;20049;-45
2022/06/15 04:32:25;;;;;;;4.85;2.78;;;12.70;99.90;;;;;;5045029;28;20134;-45
2022/06/15 04:34:50;;;;;;;4.32;2.95;;;12.80;99.90;;;;;;5047416;28;20052;-45
2022/06/15 04:37:16;;;;;;;3.30;2.38;;;12.70;99.90;;;;;;5048447;28;20021;-46
2022/06/15 04:39:42;;;;;;;3.58;2.17;;;12.80;99.90;;;;;;5050310;28;20036;-45
2022/06/15 04:42:09;;;;;;;4.60;3.17;;;12.80;99.90;;;;;;5041884;28;20060;-46
2022/06/15 04:44:34;;;;;;;2.75;2.55;;;12.80;99.90;;;;;;5044514;28;20033;-50
2022/06/15 04:47:01;;;;;;;6.63;3.22;;;12.80;99.90;;;;;;5048673;28;20021;-53
2022/06/15 04:49:27;;;;;;;3.33;2.33;;;12.80;99.90;;;;;;5046890;28;20155;-49
2022/06/15 04:51:52;;;;;;;2.95;2.60;;;12.80;99.90;;;;;;5048962;28;20098;-52
2022/06/15 04:54:19;;;;;;;4.05;2.50;;;12.80;99.90;;;;;;5043951;28;20510;-49
2022/06/15 04:56:46;;;;;;;6.68;3.15;;;12.80;99.90;;;;;;5050077;28;20017;-49
2022/06/15 04:59:12;;;;;;;3.33;2.85;;;12.80;99.90;;;;;;5041498;28;20037;-50
2022/06/15 05:01:38;;;;;;;4.70;3.05;;;12.80;99.90;;;;;;5049240;28;20431;-47
2022/06/15 05:04:04;;;;;;;4.10;2.97;;;12.80;99.90;;;;;;5047808;28;20021;-51
2022/06/15 05:06:32;;;;;;;5.00;2.90;;;12.90;99.90;;;;;;5047415;28;20021;-46
2022/06/15 05:08:58;;;;;;;5.15;3.00;;;13.00;99.90;;;;;;5048829;28;20147;-47
2022/06/15 05:11:26;;;;;;;7.07;2.90;;;13.00;99.90;;;;;;5044840;28;20032;-48
2022/06/15 05:13:52;;;;;;;6.50;3.03;;;13.00;99.90;;;;;;5048991;28;20020;-47
2022/06/15 05:16:18;;;;;;;3.97;3.58;;;13.10;99.90;;;;;;5042146;28;20087;-46
2022/06/15 05:18:44;;;;;;;7.60;3.20;;;13.10;99.90;;;;;;5049464;28;20016;-47
2022/06/15 05:21:09;;;;;;;7.45;3.47;;;13.10;99.90;;;;;;5046619;28;20124;-45
2022/06/15 05:23:35;;;;;;;10.23;2.72;;;13.20;99.90;;;;;;5047483;28;20573;-44
2022/06/15 05:26:01;;;;;;;5.32;3.15;;;13.20;99.90;;;;;;5048252;28;20048;-45
2022/06/15 05:28:27;;;;;;;4.13;2.60;;;13.30;99.90;;;;;;5044342;28;20043;-46
2022/06/15 05:31:03;;;;;;;7.75;2.60;;;13.40;99.90;;;;;;5031421;28;20474;-45
2022/06/15 05:33:28;;;;;;;;;;;13.50;99.90;;;;;;5043376;28;20121;-45
2022/06/15 05:36:01;;;;;;;6.47;2.93;;;13.60;99.90;;;;;;5049013;28;19995;-46
2022/06/15 05:38:27;;;;;;;5.57;2.85;;;13.80;99.90;;;;;;5047712;28;20021;-46
2022/06/15 05:40:52;;;;;;;4.65;2.28;;;13.80;99.90;;;;;;5044198;28;20029;-45
2022/06/15 05:43:18;;;;;;;4.22;2.67;;;13.90;99.90;;;;;;5035323;28;20028;-45
2022/06/15 05:45:43;;;;;;;4.75;2.40;;;14.00;99.90;;;;;;5049640;28;20013;-45
2022/06/15 05:48:09;;;;;;;3.85;2.55;;;14.10;99.90;;;;;;5045999;28;20024;-46
2022/06/15 05:50:34;;;;;;;8.55;3.63;;;14.30;99.90;;;;;;5048269;28;20067;-46
2022/06/15 05:53:00;;;;;;;3.20;2.30;;;14.40;99.90;;;;;;5044521;28;20147;-46
2022/06/15 05:55:25;;;;;;;5.82;2.88;;;14.60;99.90;;;;;;5041381;28;20045;-46
2022/06/15 05:57:51;;;;;;;8.02;2.70;;;14.80;99.90;;;;;;5043682;28;20029;-46
2022/06/15 06:00:18;;;;;;;6.53;2.08;;;15.00;99.90;;;;;;5045840;28;20017;-49
2022/06/15 06:02:44;;;;;;;3.50;1.85;;;15.20;99.90;;;;;;5047856;28;20391;-46
2022/06/15 06:05:09;;;;;;;3.35;2.40;;;15.30;99.90;;;;;;5044823;28;20028;-46
2022/06/15 06:07:35;;;;;;;4.65;2.20;;;15.40;99.90;;;;;;5047300;28;20044;-45
2022/06/15 06:10:02;;;;;;;2.75;1.88;;;15.40;99.90;;;;;;5043932;28;20017;-46
2022/06/15 06:12:28;;;;;;;3.08;1.85;;;15.40;99.90;;;;;;5046425;28;20475;-45
2022/06/15 06:14:53;;;;;;;2.38;1.88;;;15.50;99.90;;;;;;5043898;28;20044;-45
2022/06/15 06:17:19;;;;;;;3.55;1.98;;;15.50;99.90;;;;;;5046613;28;20024;-46
2022/06/15 06:19:45;;;;;;;2.80;2.20;;;15.60;99.90;;;;;;5048871;28;20025;-49
2022/06/15 06:22:11;;;;;;;4.65;2.08;;;15.60;99.90;;;;;;5044487;28;20027;-45
2022/06/15 06:24:36;;;;;;;4.15;2.00;;;15.70;99.90;;;;;;5048111;28;20043;-47
2022/06/15 06:27:05;;;;;;;4.07;1.90;;;15.70;99.90;;;;;;5044543;28;20028;-46
2022/06/15 06:29:31;;;;;;;3.53;2.05;;;15.80;99.90;;;;;;5046550;28;20032;-46
2022/06/15 06:31:58;;;;;;;2.25;1.75;;;15.90;99.90;;;;;;5047898;28;20104;-50
2022/06/15 06:34:24;;;;;;;2.30;1.75;;;16.00;99.90;;;;;;5043478;28;20676;-47
2022/06/15 06:36:50;;;;;;;3.53;1.92;;;16.10;99.90;;;;;;5047620;28;20041;-46
2022/06/15 06:39:19;;;;;;;3.90;2.33;;;16.10;99.90;;;;;;5043090;28;20024;-49
2022/06/15 06:41:45;;;;;;;2.60;1.77;;;16.10;99.90;;;;;;5038668;28;20033;-46
2022/06/15 06:44:12;;;;;;;2.63;1.40;;;16.10;99.90;;;;;;5049632;28;20102;-47
2022/06/15 06:46:42;;;;;;;3.60;1.60;;;16.20;99.90;;;;;;5048345;28;20024;-48
2022/06/15 06:49:08;;;;;;;2.08;1.30;;;16.30;99.90;;;;;;5049981;28;20437;-46
2022/06/15 06:51:35;;;;;;;2.88;1.52;;;16.40;99.90;;;;;;5047147;28;20139;-49
2022/06/15 06:54:02;;;;;;;2.58;1.83;;;16.60;99.90;;;;;;5049070;28;20384;-48
2022/06/15 06:56:28;;;;;;;3.55;1.65;;;16.60;99.90;;;;;;5052643;28;20428;-50
2022/06/15 06:58:54;;;;;;;1.80;1.52;;;16.70;99.90;;;;;;5047740;28;20106;-52
2022/06/15 07:01:19;;;;;;;2.03;1.42;;;16.70;99.90;;;;;;5051384;28;20495;-45
2022/06/15 07:03:45;;;;;;;3.08;2.03;;;16.70;99.90;;;;;;5052157;28;20028;-46
2022/06/15 07:06:11;;;;;;;3.97;1.77;;;16.70;99.90;;;;;;5049232;28;20040;-46
2022/06/15 07:08:38;;;;;;;3.88;1.83;;;16.70;99.90;;;;;;5052083;28;20025;-49
2022/06/15 07:11:12;;;;;;;4.97;1.90;;;16.80;99.90;;;;;;5051016;28;20025;-45
2022/06/15 07:13:38;;;;;;;2.38;1.50;;;17.00;99.90;;;;;;5052127;28;20483;-48
2022/06/15 07:16:08;;;;;;;2.70;1.80;;;17.40;99.90;;;;;;5045630;28;20036;-46
2022/06/15 07:18:34;;;;;;;1.73;1.35;;;17.70;99.90;;;;;;5052096;28;20060;-45
2022/06/15 07:21:11;;;;;;;1.73;1.20;;;18.00;99.90;;;;;;5044636;28;20060;-45
2022/06/15 07:23:38;;;;;;;3.85;1.70;;;18.20;99.90;;;;;;5046639;28;20021;-47
2022/06/15 07:26:05;;;;;;;3.53;1.50;;;18.40;99.90;;;;;;5050084;28;20116;-46
2022/06/15 07:28:31;;;;;;;4.10;1.50;;;18.60;99.90;;;;;;5049463;28;20075;-47
2022/06/15 07:30:57;;;;;;;5.15;1.98;;;18.70;99.90;;;;;;5050770;28;20430;-51
2022/06/15 07:33:23;;;;;;;3.58;1.55;;;18.90;99.90;;;;;;5046146;28;20047;-48
2022/06/15 07:35:48;;;;;;;5.05;1.50;;;19.20;99.90;;;;;;5051712;28;20025;-51
2022/06/15 07:38:14;;;;;;;5.03;1.33;;;19.40;99.90;;;;;;5042646;28;20101;-50
2022/06/15 07:40:39;;;;;;;7.32;1.77;;;19.50;99.90;;;;;;5049832;28;20082;-48
2022/06/15 07:43:05;;;;;;;2.60;1.58;;;19.70;99.90;;;;;;5048831;28;20085;-46
2022/06/15 07:45:31;;;;;;;3.95;2.28;;;19.80;99.90;;;;;;5046592;28;20128;-47
2022/06/15 07:50:42;;;;;;;2.78;1.52;;;20.10;99.90;;;;;;5046487;28;20032;-48
2022/06/15 07:53:10;;;;;;;3.88;1.75;;;20.40;99.90;;;;;;5050453;28;20052;-48
2022/06/15 07:55:39;;;;;;;3.75;1.30;;;20.20;99.90;;;;;;5046152;28;20492;-51
2022/06/15 07:58:05;;;;;;;1.98;1.30;;;20.00;99.90;;;;;;5049861;28;20470;-50
2022/06/15 08:00:32;;;;;;;2.67;1.30;;;20.10;99.90;;;;;;5046467;28;20049;-50
2022/06/15 08:02:58;;;;;;;5.25;1.88;;;20.50;99.90;;;;;;5048614;28;20033;-51
2022/06/15 08:05:25;;;;;;;3.38;1.17;;;20.60;98.80;;;;;;5046534;28;20071;-47
2022/06/15 08:07:51;;;;;;;3.78;1.77;;;20.60;99.90;;;;;;5047476;28;20446;-47
2022/06/15 08:10:19;;;;;;;1.52;1.23;;;20.80;99.90;;;;;;5050539;28;20013;-50
2022/06/15 08:12:45;;;;;;;1.77;0.95;;;20.80;99.50;;;;;;5046636;28;20533;-47
2022/06/15 08:15:11;;;;;;;2.35;1.77;;;21.00;98.70;;;;;;5049484;28;20055;-48
2022/06/15 08:18:05;;;;;;;3.25;1.85;;;21.10;98.90;;;;;;5045819;28;20653;-50
2022/06/15 08:20:36;;;;;;;3.38;1.38;;;21.10;97.80;;;;;;5041573;28;20078;-46
2022/06/15 08:23:07;;;;;;;4.25;1.70;;;21.30;99.90;;;;;;5044918;28;20048;-46
2022/06/15 08:25:37;;;;;;;2.30;1.38;;;21.70;97.70;;;;;;5047795;28;20048;-46
2022/06/15 08:28:05;;;;;;;3.22;1.30;;;21.80;96.00;;;;;;5049708;28;20036;-47
2022/06/15 08:30:31;;;;;;;2.42;1.38;;;21.70;96.90;;;;;;5046721;28;20020;-47
2022/06/15 08:32:57;;;;;;;4.57;1.75;;;22.00;96.50;;;;;;5039778;28;20029;-49
2022/06/15 08:35:23;;;;;;;3.80;1.75;;;22.00;95.80;;;;;;5045539;28;20052;-48
2022/06/15 08:37:49;;;;;;;1.83;1.15;;;22.00;97.40;;;;;;5048048;28;20021;-46
2022/06/15 08:40:15;;;;;;;2.83;1.50;;;22.10;97.00;;;;;;5045480;28;20391;-53
2022/06/15 08:42:59;;;;;;;2.88;1.67;;;21.90;95.40;;;;;;5050196;28;20033;-51
2022/06/15 08:45:36;;;;;;;4.28;1.20;;;21.70;96.60;;;;;;5044909;28;20017;-50
2022/06/15 08:48:25;;;;;;;0.80;0.73;;;21.60;96.10;;;;;;5048495;28;20029;-52
2022/06/15 08:51:04;;;;;;;2.33;1.33;;;21.80;96.60;;;;;;5039868;28;20032;-48
2022/06/15 08:53:44;;;;;;;2.75;1.27;;;22.40;97.00;;;;;;5049439;28;20152;-49
2022/06/15 08:56:17;;;;;;;1.20;1.10;;;22.70;92.60;;;;;;5045023;28;20095;-51
2022/06/15 08:58:46;;;;;;;1.88;1.20;;;22.90;94.20;;;;;;5048997;28;20021;-47
2022/06/15 09:01:27;;;;;;;3.22;1.10;;;23.20;94.60;;;;;;5045142;28;20028;-47
2022/06/15 09:03:58;;;;;;;1.48;1.20;;;23.50;93.60;;;;;;5047246;28;20025;-53
2022/06/15 09:06:59;;;;;;;3.10;1.00;;;23.70;91.60;;;;;;5044503;28;20013;-50
2022/06/15 09:09:59;;;;;;;3.67;1.00;;;24.00;93.60;;;;;;5031383;28;20031;-52
2022/06/15 09:13:01;;;;;;;2.55;1.40;;;23.80;88.30;;;;;;5041214;28;20026;-51
2022/06/15 09:15:50;;;;;;;2.38;1.13;;;23.50;87.20;;;;;;5043596;28;20040;-49
2022/06/15 09:19:02;;;;;;;3.95;1.10;;;22.40;89.90;;;;;;5042421;28;20025;-50
2022/06/15 09:21:37;;;;;;;2.90;1.35;;;21.90;88.70;;;;;;4948959;29;20034;-51
2022/06/15 09:24:16;;;;;;;1.70;1.25;;;21.30;90.00;;;;;;4942411;29;20413;-51
2022/06/15 09:26:59;;;;;;;3.60;1.50;;;21.00;91.20;;;;;;5016259;28;20028;-51
2022/06/15 09:29:31;;;;;;;7.03;1.80;;;21.00;91.40;;;;;;5040642;28;20496;-53
2022/06/15 09:32:03;;;;;;;2.28;1.13;;;20.70;91.60;;;;;;5047847;28;20197;-50
2022/06/15 09:34:43;;;;;;;2.85;1.27;;;20.60;92.10;;;;;;5045080;28;20027;-53
2022/06/15 09:37:20;;;;;;;3.47;1.25;;;20.50;92.80;;;;;;5029568;28;20464;-48
2022/06/15 09:39:46;;;;;;;5.35;1.20;;;20.40;92.30;;;;;;5045921;28;20029;-47
2022/06/15 09:42:20;;;;;;;1.67;1.20;;;20.70;95.00;;;;;;5047670;28;20443;-47
2022/06/15 09:45:19;;;;;;;9.13;1.92;;;20.80;92.10;;;;;;5044826;28;20044;-48
2022/06/15 09:48:08;;;;;;;1.90;1.20;;;20.80;93.40;;;;;;5045742;28;20532;-48
2022/06/15 09:50:51;;;;;;;3.28;1.27;;;20.90;90.40;;;;;;5043852;28;20395;-50
2022/06/15 09:53:30;;;;;;;1.77;0.95;;;21.00;88.60;;;;;;5041532;28;20076;-47
2022/06/15 09:56:04;;;;;;;1.65;1.23;;;21.30;90.50;;;;;;5040323;28;20080;-51
2022/06/15 09:58:54;;;;;;;1.77;1.35;;;21.70;90.80;;;;;;5048348;28;20425;-48
2022/06/15 10:01:21;;;;;;;2.40;1.05;;;22.00;89.20;;;;;;5044267;28;20067;-52
2022/06/15 10:03:49;;;;;;;2.85;1.13;;;22.10;89.90;;;;;;5047132;28;20389;-51
2022/06/15 10:06:37;;;;;;;1.65;1.33;;;22.20;85.90;;;;;;5041434;28;20094;-49
2022/06/15 10:09:07;;;;;;;1.98;1.38;;;22.20;86.20;;;;;;5045882;28;20037;-52
2022/06/15 10:11:36;;;;;;;2.60;1.05;;;22.50;88.90;;;;;;5049056;28;20569;-51
2022/06/15 10:14:31;;;;;;;2.53;1.15;;;22.50;85.70;;;;;;5107368;22;20505;-53
2022/06/15 10:17:01;;;;;;;2.38;1.20;;;22.90;87.70;;;;;;5108679;28;20107;-53
2022/06/15 10:19:29;;;;;;;1.27;1.02;;;23.00;83.30;;;;;;5087358;28;20039;-49
2022/06/15 10:21:59;;;;;;;1.77;1.30;;;23.10;84.10;;;;;;5112029;28;20032;-50
2022/06/15 10:24:39;;;;;;;2.25;1.60;;;23.00;82.70;;;;;;5088261;28;20012;-52
2022/06/15 10:27:29;;;;;;;2.17;1.10;;;22.80;83.30;;;;;;5092533;28;20533;-49
2022/06/15 10:29:59;;;;;;;4.30;1.52;;;23.00;85.40;;;;;;5088517;28;20024;-51
2022/06/15 10:32:26;;;;;;;3.30;1.33;;;23.00;83.50;;;;;;5091015;28;20098;-50
2022/06/15 10:35:05;;;;;;;1.55;1.23;;;23.00;81.80;;;;;;5088157;28;20099;-49
2022/06/15 10:37:44;;;;;;;1.73;1.30;;;22.50;80.40;;;;;;5090977;28;20570;-48
2022/06/15 10:40:29;;;;;;;4.45;1.33;;;22.00;81.20;;;;;;5087596;28;20040;-48
2022/06/15 10:43:07;;;;;;;1.35;1.10;;;21.90;84.50;;;;;;5073015;28;20119;-49
2022/06/15 10:45:37;;;;;;;2.53;1.20;;;21.80;85.40;;;;;;5088146;28;20099;-50
2022/06/15 10:48:13;;;;;;;3.47;1.40;;;21.60;86.90;;;;;;5090641;28;20013;-50
2022/06/15 10:50:51;;;;;;;2.40;1.50;;;21.40;83.90;;;;;;5087142;28;20090;-50
2022/06/15 10:53:34;;;;;;;2.85;1.23;;;21.10;86.00;;;;;;5084354;28;20043;-49
2022/06/15 11:02:07;;;;;;;1.33;1.05;;;21.10;87.80;;;;;;5024014;28;20138;-48
2022/06/15 11:04:36;;;;;;;3.80;2.28;;;21.40;87.00;;;;;;5055049;28;20028;-52
2022/06/15 11:07:12;;;;;;;1.75;1.17;;;21.50;82.30;;;;;;5084486;28;20438;-50
2022/06/15 11:09:59;;;;;;;3.97;1.45;;;21.60;85.30;;;;;;5086533;28;20169;-50
2022/06/15 11:12:30;;;;;;;1.73;1.25;;;21.80;85.70;;;;;;5083127;28;20021;-52
2022/06/15 11:15:22;;;;;;;2.80;1.30;;;22.00;82.90;;;;;;5090664;28;20485;-52
2022/06/15 11:18:03;;;;;;;5.03;1.85;;;21.80;81.50;;;;;;5086907;28;20028;-49
2022/06/15 11:20:50;;;;;;;3.08;1.70;;;21.70;83.40;;;;;;5067217;28;20020;-53
2022/06/15 11:23:29;;;;;;;2.40;1.52;;;21.90;85.50;;;;;;5086032;28;20482;-51
2022/06/15 11:26:52;;;;;;;2.25;1.30;;;22.00;83.90;;;;;;5062096;28;20032;-49
2022/06/15 11:28:56;;;;;;;4.57;1.52;;;22.30;84.20;;;;;;5090587;28;20031;-49
2022/06/15 11:31:27;;;;;;;2.38;1.83;;;22.40;79.40;;;;;;5061412;28;20367;-52
2022/06/15 11:33:59;;;;;;;4.68;1.52;;;22.10;78.30;;;;;;5090939;28;20031;-52
2022/06/15 11:36:48;;;;;;;2.00;1.50;;;21.90;79.80;;;;;;5085810;28;20020;-52
2022/06/15 11:39:21;;;;;;;1.83;1.20;;;22.00;79.20;;;;;;5087507;28;20478;-50
2022/06/15 11:41:55;;;;;;;1.63;1.20;;;21.90;79.20;;;;;;5089746;28;20436;-52
2022/06/15 11:44:28;;;;;;;4.40;1.30;;;22.10;83.80;;;;;;5083974;28;20107;-47
2022/06/15 11:47:03;;;;;;;2.97;1.45;;;22.30;81.30;;;;;;5089080;28;20035;-48
2022/06/15 11:50:02;;;;;;;3.17;1.35;;;22.20;81.20;;;;;;5086250;28;20445;-50
2022/06/15 11:52:27;;;;;;;3.13;1.10;;;22.20;84.10;;;;;;5089125;28;20016;-50
2022/06/15 11:54:56;;;;;;;3.03;1.02;;;22.50;83.20;;;;;;5090584;28;20089;-47
2022/06/15 11:57:30;;;;;;;2.05;0.95;;;22.70;83.50;;;;;;5086714;28;20093;-51
2022/06/15 12:00:11;;;;;;;1.85;1.13;;;22.60;82.20;;;;;;5090138;28;20119;-49
2022/06/15 12:02:37;;;;;;;2.75;1.48;;;22.60;81.80;;;;;;5086741;28;20038;-53
2022/06/15 12:05:21;;;;;;;3.88;1.65;;;22.50;80.40;;;;;;5070798;28;20016;-49
2022/06/15 12:08:22;;;;;;;3.22;1.63;;;22.70;83.10;;;;;;5086654;28;20070;-48
2022/06/15 12:11:02;;;;;;;4.63;1.90;;;22.80;81.50;;;;;;5052389;28;20119;-50
2022/06/15 12:13:44;;;;;;;3.65;1.33;;;22.80;79.50;;;;;;5083989;28;20039;-51
2022/06/15 12:16:26;;;;;;;3.08;1.85;;;22.20;78.20;;;;;;5089117;28;20027;-53
2022/06/15 12:18:58;;;;;;;2.25;1.48;;;21.90;82.00;;;;;;5085347;28;20024;-52
2022/06/15 12:21:39;;;;;;;4.57;1.83;;;21.80;81.40;;;;;;5089392;28;20020;-51
2022/06/15 12:24:08;;;;;;;3.10;1.50;;;21.90;80.90;;;;;;5058538;28;20021;-48
2022/06/15 12:26:52;;;;;;;3.95;1.50;;;22.10;81.70;;;;;;5089945;28;20024;-53
2022/06/15 12:29:48;;;;;;;3.47;1.20;;;22.60;83.50;;;;;;5080453;28;20092;-52
2022/06/15 12:32:44;;;;;;;3.92;1.60;;;22.80;81.40;;;;;;5088462;28;20028;-49
2022/06/15 12:35:13;;;;;;;3.63;1.15;;;22.80;79.90;;;;;;5088513;28;20047;-52
2022/06/15 12:38:07;;;;;;;2.58;1.33;;;22.70;78.80;;;;;;5087856;28;20069;-52
2022/06/15 12:40:39;;;;;;;2.28;1.38;;;22.10;78.20;;;;;;5087588;28;20099;-50
2022/06/15 12:43:13;;;;;;;4.13;1.48;;;22.00;80.30;;;;;;5068512;28;20459;-53
2022/06/15 12:45:44;;;;;;;1.40;1.15;;;22.00;81.40;;;;;;5086564;28;20110;-49
2022/06/15 12:48:22;;;;;;;2.45;1.30;;;22.20;81.40;;;;;;5087197;28;20021;-52
2022/06/15 12:51:44;;;;;;;2.40;1.48;;;22.50;82.00;;;;;;5086180;28;20020;-48
2022/06/15 12:54:20;;;;;;;1.27;0.88;;;22.70;78.50;;;;;;5016459;28;20104;-50
2022/06/15 12:57:09;;;;;;;6.55;2.70;;;22.90;79.10;;;;;;5081374;28;20027;-49
2022/06/15 13:00:11;;;;;;;3.25;1.20;;;23.20;77.70;;;;;;5066653;28;20023;-52
2022/06/15 13:02:46;;;;;;;3.05;1.67;;;23.30;78.50;;;;;;5085839;28;20024;-51
2022/06/15 13:05:21;;;;;;;1.60;1.47;;;23.40;76.30;;;;;;5086952;28;20013;-51
2022/06/15 13:08:17;;;;;;;3.65;1.35;;;23.50;77.20;;;;;;5085618;28;20016;-48
2022/06/15 13:10:54;;;;;;;2.55;1.60;;;23.50;76.30;;;;;;5085449;28;20077;-52
2022/06/15 13:13:32;;;;;;;1.90;1.20;;;23.60;78.40;;;;;;5081762;28;20024;-52
2022/06/15 13:16:08;;;;;;;4.60;1.40;;;23.60;76.60;;;;;;5088075;28;20045;-53
2022/06/15 13:18:46;;;;;;;1.98;1.42;;;23.70;77.50;;;;;;5084928;28;20058;-50
2022/06/15 13:21:13;;;;;;;6.65;1.65;;;23.90;76.80;;;;;;5086776;28;20027;-53
2022/06/15 13:23:48;;;;;;;3.00;1.58;;;23.90;73.30;;;;;;5083794;28;20098;-49
2022/06/15 13:26:15;;;;;;;1.13;1.02;;;23.70;73.10;;;;;;5085489;28;20591;-53
2022/06/15 13:28:58;;;;;;;2.22;1.20;;;23.70;74.70;;;;;;5089603;28;20016;-50
2022/06/15 13:31:52;;;;;;;4.03;1.40;;;24.00;75.60;;;;;;5085109;28;20073;-49